Strona główna
METAR-TAF:

METAR-TAF

Lotnisko :

Port lotniczy Johannesburg

Johannesburg, Południowa Afryka

Szerokość geograficzna: 26-08S, Długość geograficzna: 028-14E, wysokość: 1694 m

Aktualna obserwacja pogody

Raport powstał 8 minut temu, godzina 19:30 UTC
Wiatr 6 kt od zachodnio-północny zachód, zmienny między południowy zachód i północny zachód
Temperatura 14°C
Wilgotność 36%
Ciśnienie 1030 hPa
Widzialność 10 km lub więcej
Brak chmur poniżej 1500 m i brak chmur cumulonimbus

METAR: FAOR 171930Z 29006KT 230V320 CAVOK 14/M01 Q1030 NOSIG

czas: 21:38 (19:38 UTC)

Prognoza

Raport powstał 3 godziny i 38 minut temu, godzina 16:00 UTC
Prognoza ważna od 17 godzina 18 UTC do 18 godzina 24 UTC
Wiatr 3 kt z kierunków zmiennych
Widzialność 10 km lub więcej
Brak chmur poniżej 1500 m i brak chmur cumulonimbus
Stopniowe zmiany
od 18 godzina 06 UTC do 18 godzina 08 UTC
Wiatr 8 kt od zachodnio-południowy zachód

TAF: FAOR 171600Z 1718/1824 VRB03KT CAVOK TX20/1812Z TN07/1805Z BECMG 1806/1808 24008KT

Obserwacja i prognoza pogody dla ponad 4000 lotnisk (raport METAR i TAF).

Dostępne stacje oznaczono żółtymi i czerwonymi punktami na mapie.

Najedź kursorem aby zobaczyć nazwę stacji.

Kliknij aby zobaczyć obserwacje i prognozy pogody.

Aby zmienić mapę: kliknij na zielony przycisk z czarnym krzyżykiem, aby powiększyć; na zielony przycisk z myślnikiem, aby pomniejszyć; na zielone strzałki, aby przejść do map sąsiednich.


METAR-TAF: